CheckWX is a tool to help pilots better visualize weather data.  It is not intended as a substitute for an official pre-flight weather briefing.

19:28:50 UTC

KGUY METAR
Guymon Municipal Airport
Guymon, Oklahoma, USA
Current

36 mins ago

KGUY 101853Z AUTO 13008KT 110V170 10SM SCT038 31/21 A3006 RMK AO2 SLP126 T03110206
Observed
Jul-10 @ 18:53 UTC
Wind
  • 130° at 8 KTS
Visibility
10 SM
Flight Rules
VFR
Cloud Levels
  • Scattered at 3,800' AGL
Temperature
31°C / 88°F
Dewpoint
21°C / 70°F
Humidity
55%
Altimeter
30.06" Hg
Pressure
1017.92 hPa
Previous

2 hours ago

KGUY 101753Z AUTO 09013G18KT 10SM BKN036 29/21 A3009 RMK AO2 SLP136 T02940206 10300 20222 50006
Observed
Jul-10 @ 17:53 UTC
Wind
  • 090° at 13 KTS
  • Gusting to 18 KTS
Visibility
10 SM
Flight Rules
VFR
Cloud Levels
  • Broken at 3,600' AGL
Temperature
29°C / 84°F
Dewpoint
21°C / 70°F
Humidity
62%
Altimeter
30.09" Hg
Pressure
1018.92 hPa
Previous

3 hours ago

KGUY 101653Z AUTO 10010G19KT 10SM FEW020 OVC039 28/21 A3010 RMK AO2 SLP138 T02830206
Observed
Jul-10 @ 16:53 UTC
Wind
  • 100° at 10 KTS
  • Gusting to 19 KTS
Visibility
10 SM
Flight Rules
VFR
Cloud Levels
  • Few at 2,000' AGL
  • Overcast at 3,900' AGL
Temperature
28°C / 82°F
Dewpoint
21°C / 70°F
Humidity
66%
Altimeter
30.1" Hg
Pressure
1019.32 hPa